createdAt,value
2019-05-17T00:02:02.543Z,12.60
2019-05-17T00:04:33.305Z,12.60
2019-05-17T00:07:06.334Z,12.50
2019-05-17T00:09:37.438Z,12.50
2019-05-17T00:12:08.227Z,12.60
2019-05-17T00:14:38.869Z,12.70
2019-05-17T00:17:09.433Z,12.60
2019-05-17T00:19:41.710Z,12.50
2019-05-17T00:22:12.632Z,12.50
2019-05-17T00:24:43.418Z,12.40
2019-05-17T00:27:17.191Z,12.40
2019-05-17T00:29:48.130Z,12.60
2019-05-17T00:32:18.761Z,12.40
2019-05-17T00:34:49.620Z,12.40
2019-05-17T00:37:20.276Z,12.30
2019-05-17T00:39:51.147Z,12.40
2019-05-17T00:42:22.274Z,12.50
2019-05-17T00:44:52.823Z,12.30
2019-05-17T00:47:23.459Z,12.50
2019-05-17T00:49:54.068Z,12.40
2019-05-17T00:52:27.076Z,12.40
2019-05-17T00:54:56.874Z,12.30
2019-05-17T00:57:27.717Z,12.30
2019-05-17T00:59:58.469Z,12.30
2019-05-17T01:02:29.022Z,12.30
2019-05-17T01:05:02.070Z,12.30
2019-05-17T01:07:32.783Z,12.20
2019-05-17T01:10:03.385Z,12.10
2019-05-17T01:12:33.920Z,12.10
2019-05-17T01:15:07.483Z,12.20
2019-05-17T01:17:38.027Z,12.30
2019-05-17T01:20:10.313Z,12.20
2019-05-17T01:22:40.879Z,12.20
2019-05-17T01:25:12.309Z,12.30
2019-05-17T01:27:43.007Z,12.40
2019-05-17T01:30:13.811Z,12.40
2019-05-17T01:32:46.354Z,12.30
2019-05-17T01:35:16.911Z,12.30
2019-05-17T01:37:47.717Z,12.40
2019-05-17T01:40:18.492Z,12.50
2019-05-17T01:42:49.182Z,12.50
2019-05-17T01:45:19.938Z,12.40
2019-05-17T01:47:50.434Z,12.40
2019-05-17T01:50:22.196Z,12.40
2019-05-17T01:52:56.643Z,12.30
2019-05-17T01:55:27.402Z,12.40
2019-05-17T01:57:57.882Z,12.30
2019-05-17T02:00:28.468Z,12.40
2019-05-17T02:02:59.821Z,12.50
2019-05-17T02:05:30.647Z,12.50
2019-05-17T02:08:01.326Z,12.50
2019-05-17T02:10:32.506Z,12.50
2019-05-17T02:13:03.368Z,12.50
2019-05-17T02:15:33.760Z,12.50
2019-05-17T02:18:07.118Z,12.50
2019-05-17T02:20:37.595Z,12.50
2019-05-17T02:23:10.440Z,12.60
2019-05-17T02:25:41.388Z,12.60
2019-05-17T02:28:12.302Z,12.60
2019-05-17T02:30:44.076Z,12.60
2019-05-17T02:33:15.123Z,12.60
2019-05-17T02:35:45.679Z,12.60
2019-05-17T02:38:16.209Z,12.60
2019-05-17T02:40:46.793Z,12.70
2019-05-17T02:43:17.203Z,12.60
2019-05-17T02:45:47.942Z,12.70
2019-05-17T02:48:18.319Z,12.70
2019-05-17T02:50:49.143Z,12.80
2019-05-17T02:53:22.706Z,12.80
2019-05-17T02:55:53.898Z,12.70
2019-05-17T02:58:23.653Z,12.70
2019-05-17T03:00:53.895Z,12.70
2019-05-17T03:03:24.148Z,12.70
2019-05-17T03:05:55.620Z,12.60
2019-05-17T03:08:25.857Z,12.40
2019-05-17T03:10:56.282Z,12.40
2019-05-17T03:13:26.480Z,12.40
2019-05-17T03:15:56.760Z,12.30
2019-05-17T03:18:27.122Z,12.20
2019-05-17T03:20:57.365Z,12.20
2019-05-17T03:23:27.805Z,12.10
2019-05-17T03:25:58.305Z,12.10
2019-05-17T03:28:28.763Z,12.10
2019-05-17T03:30:59.071Z,12.10
2019-05-17T03:33:35.780Z,12.10
2019-05-17T03:36:06.193Z,12.10
2019-05-17T03:38:35.858Z,12.10
2019-05-17T03:41:17.731Z,12.00
2019-05-17T03:43:43.363Z,11.90
2019-05-17T03:46:13.602Z,11.90
2019-05-17T03:48:43.702Z,11.80
2019-05-17T03:51:14.158Z,11.80
2019-05-17T03:53:44.704Z,11.70
2019-05-17T03:56:15.380Z,11.70
2019-05-17T03:58:46.083Z,11.80
2019-05-17T04:01:16.867Z,11.80
2019-05-17T04:03:47.498Z,11.80
2019-05-17T04:06:18.372Z,11.70
2019-05-17T04:08:49.157Z,11.70
2019-05-17T04:11:28.009Z,11.70
2019-05-17T04:13:53.754Z,11.60
2019-05-17T04:16:24.969Z,11.70
2019-05-17T04:18:56.097Z,11.70
2019-05-17T04:21:26.794Z,11.70
2019-05-17T04:23:57.765Z,11.70
2019-05-17T04:26:28.293Z,11.60
2019-05-17T04:28:58.894Z,11.70
2019-05-17T04:31:31.764Z,11.60
2019-05-17T04:34:03.216Z,11.50
2019-05-17T04:36:34.047Z,11.50
2019-05-17T04:39:06.079Z,11.50
2019-05-17T04:41:45.652Z,11.50
2019-05-17T04:44:09.212Z,11.40
2019-05-17T04:46:43.139Z,11.40
2019-05-17T04:49:13.955Z,11.40
2019-05-17T04:51:45.257Z,11.40
2019-05-17T04:54:16.541Z,11.50
2019-05-17T04:56:47.558Z,11.50
2019-05-17T04:59:18.901Z,11.40
2019-05-17T05:01:49.870Z,11.50
2019-05-17T05:04:22.602Z,11.50
2019-05-17T05:06:54.394Z,11.40
2019-05-17T05:09:25.011Z,11.50
2019-05-17T05:12:01.117Z,11.40
2019-05-17T05:14:28.437Z,11.50
2019-05-17T05:17:02.700Z,11.60
2019-05-17T05:19:33.505Z,11.60
2019-05-17T05:22:04.808Z,11.80
2019-05-17T05:24:35.582Z,11.80
2019-05-17T05:27:06.229Z,11.90
2019-05-17T05:29:41.647Z,11.90
2019-05-17T05:32:12.453Z,11.90
2019-05-17T05:34:46.409Z,11.80
2019-05-17T05:37:15.177Z,11.90
2019-05-17T05:39:45.854Z,11.90
2019-05-17T05:42:16.718Z,12.00
2019-05-17T05:44:47.100Z,12.10
2019-05-17T05:47:19.184Z,12.10
2019-05-17T05:49:51.915Z,12.30
2019-05-17T05:52:22.454Z,12.40
2019-05-17T05:54:53.082Z,12.40
2019-05-17T05:57:23.658Z,12.40
2019-05-17T05:59:54.475Z,12.60
2019-05-17T06:02:25.149Z,12.60
2019-05-17T06:04:58.355Z,12.60
2019-05-17T06:07:29.068Z,12.40
2019-05-17T06:10:02.031Z,12.40
2019-05-17T06:12:32.303Z,12.50
2019-05-17T06:15:03.717Z,12.60
2019-05-17T06:17:34.799Z,12.80
2019-05-17T06:20:05.857Z,13.00
2019-05-17T06:22:36.829Z,13.10
2019-05-17T06:25:07.857Z,13.20
2019-05-17T06:27:38.873Z,13.30
2019-05-17T06:30:12.639Z,13.00
2019-05-17T06:32:45.603Z,13.30
2019-05-17T06:35:17.977Z,13.40
2019-05-17T06:37:53.589Z,13.30
2019-05-17T06:40:23.769Z,13.30
2019-05-17T06:42:54.372Z,13.30
2019-05-17T06:45:26.899Z,13.20
2019-05-17T06:47:59.213Z,13.30
2019-05-17T06:50:32.584Z,13.60
2019-05-17T06:53:03.199Z,13.60
2019-05-17T06:55:34.068Z,13.70
2019-05-17T06:58:05.137Z,13.80
2019-05-17T07:00:35.840Z,13.90
2019-05-17T07:03:06.652Z,13.90
2019-05-17T07:05:40.375Z,14.00
2019-05-17T07:08:14.397Z,14.10
2019-05-17T07:10:45.180Z,14.10
2019-05-17T07:13:16.214Z,13.90
2019-05-17T07:15:47.902Z,14.10
2019-05-17T07:18:20.167Z,14.10
2019-05-17T07:20:52.587Z,14.00
2019-05-17T07:23:23.385Z,14.10
2019-05-17T07:25:54.374Z,14.10
2019-05-17T07:28:26.833Z,14.10
2019-05-17T07:30:59.681Z,14.00
2019-05-17T07:33:30.729Z,13.90
2019-05-17T07:36:01.747Z,13.90
2019-05-17T07:38:32.586Z,13.90
2019-05-17T07:41:03.287Z,14.00
2019-05-17T07:43:34.175Z,14.00
2019-05-17T07:46:05.391Z,14.00
2019-05-17T07:48:36.327Z,14.00
2019-05-17T07:51:10.344Z,14.10
2019-05-17T07:53:41.319Z,14.00
2019-05-17T07:56:12.232Z,14.10
2019-05-17T07:58:43.180Z,14.10
2019-05-17T08:01:13.938Z,14.20
2019-05-17T08:03:44.720Z,14.10
2019-05-17T08:06:15.208Z,14.20
2019-05-17T08:08:46.584Z,14.10
2019-05-17T08:11:19.665Z,14.10
2019-05-17T08:13:50.473Z,14.00
2019-05-17T08:16:23.717Z,14.20
2019-05-17T08:18:54.490Z,14.30
2019-05-17T08:21:25.333Z,14.50
2019-05-17T08:23:56.260Z,14.30
2019-05-17T08:26:26.875Z,14.40
2019-05-17T08:28:57.655Z,14.50
2019-05-17T08:31:29.539Z,14.40
2019-05-17T08:34:01.271Z,14.40
2019-05-17T08:36:32.373Z,14.50
2019-05-17T08:39:04.930Z,14.70
2019-05-17T08:41:36.715Z,14.80
2019-05-17T08:44:10.056Z,14.90
2019-05-17T08:46:40.764Z,15.10
2019-05-17T08:49:11.671Z,15.10
2019-05-17T08:51:42.472Z,15.10
2019-05-17T08:54:13.811Z,15.30
2019-05-17T08:56:44.902Z,15.30
2019-05-17T08:59:15.992Z,15.20
2019-05-17T09:01:46.595Z,15.20
2019-05-17T09:04:17.338Z,15.20
2019-05-17T09:06:50.294Z,15.20
2019-05-17T09:09:20.803Z,15.20
2019-05-17T09:11:53.549Z,15.30
2019-05-17T09:14:24.437Z,15.20
2019-05-17T09:16:55.222Z,15.30
2019-05-17T09:19:26.150Z,15.30
2019-05-17T09:21:57.043Z,15.40
2019-05-17T09:24:29.897Z,15.20
2019-05-17T09:27:00.128Z,15.30
2019-05-17T09:29:30.682Z,15.20
2019-05-17T09:32:01.635Z,15.10
2019-05-17T09:34:32.432Z,15.10
2019-05-17T09:37:02.992Z,15.20
2019-05-17T09:39:33.690Z,15.10
2019-05-17T09:42:04.193Z,15.10
2019-05-17T09:44:35.144Z,15.10
2019-05-17T09:47:06.013Z,15.20
2019-05-17T09:49:36.734Z,15.10
2019-05-17T09:52:10.990Z,15.10
2019-05-17T09:54:45.514Z,15.10
2019-05-17T09:57:16.566Z,15.00
2019-05-17T09:59:49.592Z,15.00
2019-05-17T10:02:22.529Z,15.20
2019-05-17T10:04:53.385Z,15.20
2019-05-17T10:07:24.904Z,15.10
2019-05-17T10:09:55.844Z,15.10
2019-05-17T10:12:26.689Z,15.10
2019-05-17T10:14:57.628Z,15.30
2019-05-17T10:17:29.356Z,15.40
2019-05-17T10:20:00.525Z,15.50
2019-05-17T10:22:31.346Z,15.60
2019-05-17T10:25:04.909Z,15.60
2019-05-17T10:27:35.822Z,15.50
2019-05-17T10:30:06.995Z,15.50
2019-05-17T10:32:40.646Z,15.60
2019-05-17T10:35:11.897Z,15.60
2019-05-17T10:37:42.775Z,15.60
2019-05-17T10:40:13.877Z,15.50
2019-05-17T10:42:44.550Z,15.70
2019-05-17T10:45:15.858Z,15.80
2019-05-17T10:47:46.902Z,15.70
2019-05-17T10:50:20.397Z,15.70
2019-05-17T10:52:50.678Z,15.80
2019-05-17T10:55:23.660Z,15.70
2019-05-17T10:57:54.306Z,15.60
2019-05-17T11:00:25.275Z,15.70
2019-05-17T11:02:56.294Z,15.60
2019-05-17T11:05:27.023Z,15.80
2019-05-17T11:07:59.826Z,15.80
2019-05-17T11:10:30.668Z,15.90
2019-05-17T11:13:01.508Z,15.90
2019-05-17T11:15:32.048Z,16.00
2019-05-17T11:18:03.329Z,16.10
2019-05-17T11:20:34.119Z,16.00
2019-05-17T11:23:06.032Z,16.00
2019-05-17T11:25:36.981Z,16.00
2019-05-17T11:28:07.590Z,16.10
2019-05-17T11:30:38.343Z,16.10
2019-05-17T11:33:08.989Z,16.20
2019-05-17T11:35:41.131Z,16.20
2019-05-17T11:38:15.162Z,16.20
2019-05-17T11:40:49.758Z,16.40
2019-05-17T11:43:21.173Z,16.50
2019-05-17T11:45:51.767Z,16.50
2019-05-17T11:48:24.106Z,16.50
2019-05-17T11:50:55.829Z,16.50
2019-05-17T11:53:29.330Z,16.60
2019-05-17T11:56:03.135Z,16.70
2019-05-17T11:58:34.956Z,16.70
2019-05-17T12:01:06.153Z,16.60
2019-05-17T12:03:37.013Z,16.70
2019-05-17T12:06:10.832Z,16.70
2019-05-17T12:08:41.572Z,16.70
2019-05-17T12:11:12.189Z,16.70
2019-05-17T12:13:43.706Z,16.80
2019-05-17T12:16:14.492Z,16.70
2019-05-17T12:18:46.333Z,16.70
2019-05-17T12:21:17.621Z,16.50
2019-05-17T12:23:48.724Z,16.70
2019-05-17T12:26:23.672Z,16.80
2019-05-17T12:28:56.501Z,17.00
2019-05-17T12:31:28.095Z,16.90
2019-05-17T12:34:01.907Z,16.80
2019-05-17T12:36:33.289Z,17.00
2019-05-17T12:39:05.111Z,17.20
2019-05-17T12:41:39.437Z,17.30
2019-05-17T12:44:10.313Z,17.30
2019-05-17T12:46:45.785Z,17.30
2019-05-17T12:49:24.755Z,17.20
2019-05-17T12:51:55.999Z,17.50
2019-05-17T12:54:27.686Z,17.60
2019-05-17T12:56:58.335Z,17.40
2019-05-17T12:59:30.218Z,17.30
2019-05-17T13:02:00.936Z,17.10
2019-05-17T13:04:32.052Z,17.40
2019-05-17T13:07:02.860Z,17.40
2019-05-17T13:09:34.158Z,17.30
2019-05-17T13:12:07.536Z,17.20
2019-05-17T13:14:40.997Z,17.20
2019-05-17T13:17:11.924Z,17.30
2019-05-17T13:19:43.442Z,17.30
2019-05-17T13:22:14.869Z,17.20
2019-05-17T13:24:47.663Z,17.10
2019-05-17T13:27:18.791Z,17.00
2019-05-17T13:29:51.145Z,17.20
2019-05-17T13:32:22.029Z,17.20
2019-05-17T13:34:53.251Z,17.30
2019-05-17T13:37:24.694Z,17.30
2019-05-17T13:39:55.827Z,17.20
2019-05-17T13:42:26.850Z,17.30
2019-05-17T13:44:59.402Z,17.30
2019-05-17T13:47:30.996Z,17.40
2019-05-17T13:50:02.040Z,17.30
2019-05-17T13:52:32.562Z,17.20
2019-05-17T13:55:05.893Z,17.10
2019-05-17T13:57:36.477Z,17.10
2019-05-17T14:00:08.525Z,17.10
2019-05-17T14:02:42.809Z,17.10
2019-05-17T14:05:15.264Z,17.20
2019-05-17T14:07:45.945Z,17.20
2019-05-17T14:10:26.738Z,17.20
2019-05-17T14:12:53.868Z,17.10
2019-05-17T14:15:24.638Z,17.30
2019-05-17T14:17:55.179Z,17.40
2019-05-17T14:20:25.876Z,17.40
2019-05-17T14:22:56.624Z,17.50
2019-05-17T14:25:27.039Z,17.60
2019-05-17T14:27:58.056Z,17.70
2019-05-17T14:30:28.734Z,17.60
2019-05-17T14:32:59.538Z,17.50
2019-05-17T14:35:32.134Z,17.40
2019-05-17T14:38:03.054Z,17.30
2019-05-17T14:41:04.827Z,17.60
2019-05-17T14:43:11.740Z,17.40
2019-05-17T14:45:42.904Z,17.40
2019-05-17T14:48:14.134Z,17.50
2019-05-17T14:50:45.567Z,17.40
2019-05-17T14:53:17.149Z,17.30
2019-05-17T14:55:47.848Z,17.30
2019-05-17T14:58:21.639Z,17.30
2019-05-17T15:00:52.129Z,17.20
2019-05-17T15:03:24.799Z,17.20
2019-05-17T15:05:55.924Z,17.30
2019-05-17T15:08:26.595Z,17.30
2019-05-17T15:10:57.153Z,17.10
2019-05-17T15:13:30.464Z,17.10
2019-05-17T15:16:01.194Z,17.10
2019-05-17T15:18:31.756Z,17.10
2019-05-17T15:21:02.424Z,17.20
2019-05-17T15:23:32.927Z,17.10
2019-05-17T15:26:03.952Z,16.90
2019-05-17T15:28:36.538Z,17.00
2019-05-17T15:31:07.475Z,17.10
2019-05-17T15:33:38.387Z,17.10
2019-05-17T15:36:09.424Z,17.20
2019-05-17T15:38:40.081Z,17.40
2019-05-17T15:41:11.190Z,17.50
2019-05-17T15:43:42.094Z,17.30
2019-05-17T15:46:13.686Z,17.40
2019-05-17T15:48:44.438Z,17.30
2019-05-17T15:51:15.360Z,17.10
2019-05-17T15:53:46.242Z,17.00
2019-05-17T15:56:19.385Z,17.00
2019-05-17T15:58:50.648Z,17.00
2019-05-17T16:01:21.528Z,17.10
2019-05-17T16:03:52.238Z,17.10
2019-05-17T16:06:23.328Z,17.10
2019-05-17T16:08:56.178Z,17.10
2019-05-17T16:11:29.417Z,17.10
2019-05-17T16:14:05.855Z,17.10
2019-05-17T16:16:37.005Z,17.20
2019-05-17T16:19:08.311Z,17.00
2019-05-17T16:21:39.008Z,17.10
2019-05-17T16:24:10.364Z,17.20
2019-05-17T16:26:41.289Z,17.20
2019-05-17T16:29:14.045Z,17.20
2019-05-17T16:31:48.831Z,17.10
2019-05-17T16:34:20.258Z,17.10
2019-05-17T16:36:51.482Z,17.20
2019-05-17T16:39:23.364Z,17.10
2019-05-17T16:41:59.477Z,17.20
2019-05-17T16:44:30.306Z,17.20
2019-05-17T16:47:02.366Z,17.20
2019-05-17T16:49:33.967Z,17.20
2019-05-17T16:52:05.512Z,17.20
2019-05-17T16:54:36.520Z,17.30
2019-05-17T16:57:09.385Z,17.30
2019-05-17T16:59:40.666Z,17.40
2019-05-17T17:02:11.983Z,17.40
2019-05-17T17:04:43.698Z,17.30
2019-05-17T17:07:15.519Z,17.40
2019-05-17T17:09:47.004Z,17.40
2019-05-17T17:12:17.826Z,17.50
2019-05-17T17:14:48.616Z,17.40
2019-05-17T17:17:20.723Z,17.50
2019-05-17T17:19:51.758Z,17.60
2019-05-17T17:22:22.504Z,17.60
2019-05-17T17:24:53.318Z,17.60
2019-05-17T17:27:24.088Z,17.50
2019-05-17T17:29:55.398Z,17.60
2019-05-17T17:32:27.688Z,17.60
2019-05-17T17:35:02.622Z,17.60
2019-05-17T17:37:33.587Z,17.70
2019-05-17T17:40:04.322Z,17.70
2019-05-17T17:42:35.198Z,17.60
2019-05-17T17:45:06.324Z,17.70
2019-05-17T17:47:36.998Z,17.60
2019-05-17T17:50:08.622Z,17.50
2019-05-17T17:52:40.978Z,17.50
2019-05-17T17:55:12.021Z,17.50
2019-05-17T17:57:42.732Z,17.50
2019-05-17T18:00:14.380Z,17.40
2019-05-17T18:02:44.991Z,17.40
2019-05-17T18:05:16.058Z,17.20
2019-05-17T18:07:46.797Z,17.20
2019-05-17T18:10:32.357Z,17.20
2019-05-17T18:13:03.593Z,17.20
2019-05-17T18:15:39.828Z,17.20
2019-05-17T18:18:11.140Z,17.20
2019-05-17T18:20:42.219Z,17.20
2019-05-17T18:23:13.415Z,17.20
2019-05-17T18:25:44.456Z,17.20
2019-05-17T18:28:15.415Z,17.20
2019-05-17T18:30:46.519Z,17.20
2019-05-17T18:33:17.168Z,17.30
2019-05-17T18:35:48.236Z,17.20
2019-05-17T18:38:22.169Z,17.20
2019-05-17T18:40:52.976Z,17.20
2019-05-17T18:43:24.307Z,17.20
2019-05-17T18:45:55.092Z,17.20
2019-05-17T18:48:26.042Z,17.20
2019-05-17T18:50:57.068Z,17.20
2019-05-17T18:53:28.355Z,17.20
2019-05-17T18:55:59.192Z,17.10
2019-05-17T18:58:30.193Z,17.10
2019-05-17T19:01:00.976Z,17.10
2019-05-17T19:03:31.807Z,17.00
2019-05-17T19:06:05.216Z,16.80
2019-05-17T19:08:35.760Z,16.90
2019-05-17T19:11:06.426Z,16.80
2019-05-17T19:13:36.825Z,16.80
2019-05-17T19:16:07.200Z,16.80
2019-05-17T19:18:41.374Z,16.70
2019-05-17T19:21:16.988Z,16.60
2019-05-17T19:23:48.739Z,16.60
2019-05-17T19:26:19.291Z,16.50
2019-05-17T19:28:49.810Z,16.50
2019-05-17T19:31:20.114Z,16.50
2019-05-17T19:33:50.787Z,16.40
2019-05-17T19:36:21.419Z,16.40
2019-05-17T19:38:51.765Z,16.30
2019-05-17T19:41:22.084Z,16.30
2019-05-17T19:43:52.708Z,16.30
2019-05-17T19:46:23.585Z,16.30
2019-05-17T19:48:54.306Z,16.30
2019-05-17T19:51:24.947Z,16.20
2019-05-17T19:53:55.638Z,16.20
2019-05-17T19:56:28.067Z,16.10
2019-05-17T19:58:58.798Z,16.10
2019-05-17T20:01:29.392Z,16.00
2019-05-17T20:04:03.075Z,16.00
2019-05-17T20:06:33.792Z,15.90
2019-05-17T20:09:05.656Z,15.80
2019-05-17T20:11:36.113Z,15.70
2019-05-17T20:14:08.496Z,15.70
2019-05-17T20:16:40.124Z,15.60
2019-05-17T20:19:10.553Z,15.60
2019-05-17T20:21:41.326Z,15.60
2019-05-17T20:24:12.265Z,15.60
2019-05-17T20:26:42.861Z,15.50
2019-05-17T20:29:13.373Z,15.50
2019-05-17T20:31:44.109Z,15.40
2019-05-17T20:34:14.608Z,15.40
2019-05-17T20:36:45.418Z,15.40
2019-05-17T20:39:16.006Z,15.40
2019-05-17T20:41:46.781Z,15.40
2019-05-17T20:44:17.245Z,15.30
2019-05-17T20:46:48.814Z,15.40
2019-05-17T20:49:19.371Z,15.20
2019-05-17T20:51:50.224Z,15.00
2019-05-17T20:54:20.929Z,15.00
2019-05-17T20:56:51.316Z,14.90
2019-05-17T20:59:22.289Z,14.90
2019-05-17T21:01:52.746Z,14.90
2019-05-17T21:04:23.128Z,14.90
2019-05-17T21:06:53.695Z,14.80
2019-05-17T21:09:24.393Z,14.70
2019-05-17T21:11:54.944Z,14.60
2019-05-17T21:14:26.800Z,14.60
2019-05-17T21:16:57.223Z,14.60
2019-05-17T21:19:27.602Z,14.60
2019-05-17T21:22:00.651Z,14.60
2019-05-17T21:24:31.065Z,14.70
2019-05-17T21:27:01.515Z,14.70
2019-05-17T21:29:32.175Z,14.60
2019-05-17T21:32:02.659Z,14.60
2019-05-17T21:34:33.172Z,14.60
2019-05-17T21:37:03.575Z,14.50
2019-05-17T21:39:33.980Z,14.40
2019-05-17T21:42:04.395Z,14.40
2019-05-17T21:44:35.030Z,14.40
2019-05-17T21:47:05.415Z,14.50
2019-05-17T21:49:36.423Z,14.30
2019-05-17T21:52:06.842Z,14.20
2019-05-17T21:54:37.443Z,14.20
2019-05-17T21:57:10.184Z,14.10
2019-05-17T21:59:40.726Z,14.10
2019-05-17T22:02:11.286Z,13.90
2019-05-17T22:04:41.932Z,13.80
2019-05-17T22:07:13.357Z,13.80
2019-05-17T22:09:45.128Z,13.60
2019-05-17T22:12:15.511Z,13.60
2019-05-17T22:14:46.156Z,13.50
2019-05-17T22:17:16.871Z,13.50
2019-05-17T22:19:48.500Z,13.50
2019-05-17T22:22:19.056Z,13.40
2019-05-17T22:24:49.554Z,13.40
2019-05-17T22:27:20.160Z,13.40
2019-05-17T22:29:50.657Z,13.40
2019-05-17T22:32:21.093Z,13.30
2019-05-17T22:34:51.484Z,13.30
2019-05-17T22:37:21.853Z,13.40
2019-05-17T22:39:52.240Z,13.30
2019-05-17T22:42:22.656Z,13.20
2019-05-17T22:44:56.438Z,13.30
2019-05-17T22:47:27.129Z,13.30
2019-05-17T22:49:57.615Z,13.30
2019-05-17T22:52:28.457Z,13.30
2019-05-17T22:54:58.996Z,13.30
2019-05-17T22:57:29.559Z,13.30
2019-05-17T23:00:00.163Z,13.30
2019-05-17T23:02:30.810Z,13.40
2019-05-17T23:05:01.670Z,13.20
2019-05-17T23:07:33.376Z,13.20
2019-05-17T23:10:04.231Z,13.20
2019-05-17T23:12:34.911Z,13.10
2019-05-17T23:15:08.082Z,13.10
2019-05-17T23:17:38.928Z,12.90
2019-05-17T23:20:09.994Z,13.00
2019-05-17T23:22:40.567Z,12.90
2019-05-17T23:25:11.096Z,12.90
2019-05-17T23:27:41.537Z,12.90
2019-05-17T23:30:12.546Z,12.90
2019-05-17T23:32:43.077Z,12.80
2019-05-17T23:35:13.554Z,12.80
2019-05-17T23:37:44.042Z,12.80
2019-05-17T23:40:14.546Z,12.80
2019-05-17T23:42:45.170Z,12.80
2019-05-17T23:45:15.905Z,12.80
2019-05-17T23:47:46.873Z,12.80
2019-05-17T23:50:17.223Z,12.80
2019-05-17T23:52:48.235Z,12.80
2019-05-17T23:55:18.982Z,12.90
2019-05-17T23:57:49.348Z,12.90
